Deli, Iran

34°F / 1°C
Scattered Clouds
Humidity: 70%
Dew Point: 25°F / -4°C
Wind: North at 0 mph / 0 km/h
Pressure: 30.18 in / 1022 hPa (Steady)
Visibility: 6.2 miles / 10.0 kilometers
Clouds: Scattered Clouds (SCT) : 3500 ft / 1066 m
Yesterday's Maximum: 50°F / 10°C
Yesterday's Minimum: 28°F / -2°C approx.
Yesterday's Heating Degree Days: 26 approx.
UV: 0 out of 16
Sunrise:6:41 AM +0330
Sunset:5:58 PM +0330
Moon Rise:9:11 PM +0330
Moon Set:8:41 AM +0330
Moon Phase Waning Gibbous
NOAA Weather Radio
No local feed.
METAR OISY 220400Z 00000KT 9999 SCT035 01/M04 Q1022
As of: 7:30 AM +0330 on February 22, 2019
Observed at: Yasouj / National, Iran

View Station's History

Local Satellite

Current Satellite Forecast
Region Default Local
No Yes

View Full Screen WunderMap

Forecast

Current Satellite Forecast

Features

Weather Apps

WunderRadio

Weather Underground Apps
Check out our wide variety of mobile and setup applications.

Weather Underground Applications

Top of Page

© Copyright 2019
The Weather Company, LLC